Time;durP1;ratioP1;P1;durP2;ratioP2;P2;SDS_P1;SDS_P2;PMS_P1;PMS_P2;Temp;Humidity;BMP_temperature;BMP_pressure;BME280_temperature;BME280_humidity;BME280_pressure;Samples;Min_cycle;Max_cycle;Signal;HPM_P1;HPM_P2
2022/12/10 00:01:08;;;;;;;1.27;1.10;;;19.00;53.00;;;;;;6271858;28;20706;-67
2022/12/10 00:04:10;;;;;;;1.42;1.00;;;19.00;53.10;;;;;;6270306;28;20035;-68
2022/12/10 00:07:10;;;;;;;1.00;0.90;;;19.00;53.00;;;;;;6270455;28;20020;-67
2022/12/10 00:10:11;;;;;;;1.23;1.13;;;19.00;53.00;;;;;;6271580;28;20051;-68
2022/12/10 00:13:12;;;;;;;1.30;1.08;;;19.00;53.00;;;;;;6271572;28;20040;-68
2022/12/10 00:16:14;;;;;;;1.35;1.00;;;19.00;53.00;;;;;;6269795;28;20486;-67
2022/12/10 00:19:15;;;;;;;1.35;0.85;;;19.00;53.00;;;;;;6270380;28;20036;-68
2022/12/10 00:22:15;;;;;;;1.00;0.90;;;19.00;53.00;;;;;;6271192;28;20025;-67
2022/12/10 00:25:16;;;;;;;1.20;1.00;;;19.00;53.00;;;;;;6271332;28;20031;-68
2022/12/10 00:28:17;;;;;;;1.42;1.20;;;19.00;52.90;;;;;;6269754;28;20056;-67
2022/12/10 00:31:22;;;;;;;1.40;1.00;;;19.00;52.90;;;;;;6271276;28;20023;-67
2022/12/10 00:34:23;;;;;;;1.55;1.10;;;19.00;52.90;;;;;;6271062;28;20021;-66
2022/12/10 00:37:24;;;;;;;1.38;1.10;;;19.00;53.00;;;;;;6271048;28;20404;-68
2022/12/10 00:40:25;;;;;;;1.25;0.90;;;19.00;53.00;;;;;;6269922;28;20057;-67
2022/12/10 00:43:26;;;;;;;1.73;1.10;;;19.00;53.00;;;;;;6270745;28;20032;-67
2022/12/10 00:46:27;;;;;;;1.10;1.00;;;19.00;53.70;;;;;;6270616;28;20028;-67
2022/12/10 00:49:28;;;;;;;1.25;1.00;;;19.00;52.90;;;;;;6270675;28;20032;-67
2022/12/10 00:52:29;;;;;;;1.13;1.00;;;19.00;53.00;;;;;;6270706;28;20021;-67
2022/12/10 00:55:29;;;;;;;1.77;1.20;;;19.00;52.90;;;;;;6270544;28;20065;-68
2022/12/10 00:58:32;;;;;;;1.20;1.00;;;19.00;53.00;;;;;;6270451;28;20490;-67
2022/12/10 01:01:39;;;;;;;1.33;1.00;;;19.00;53.00;;;;;;6269035;28;20032;-67
2022/12/10 01:04:40;;;;;;;1.48;1.10;;;19.00;53.70;;;;;;6270895;28;20096;-68
2022/12/10 01:07:40;;;;;;;1.20;0.80;;;19.00;53.00;;;;;;6269993;28;20546;-68
2022/12/10 01:10:41;;;;;;;1.15;0.90;;;19.00;53.00;;;;;;6270171;28;20355;-67
2022/12/10 01:13:42;;;;;;;1.10;0.90;;;19.00;53.00;;;;;;6270240;28;20045;-67
2022/12/10 01:16:44;;;;;;;0.85;0.80;;;19.00;53.00;;;;;;6269661;28;20453;-68
2022/12/10 01:19:45;;;;;;;1.10;1.00;;;19.00;52.90;;;;;;6269738;28;20025;-67
2022/12/10 01:22:45;;;;;;;1.50;1.17;;;19.00;53.00;;;;;;6268587;28;20405;-67
2022/12/10 01:25:47;;;;;;;1.77;1.00;;;19.00;53.00;;;;;;6268551;28;20083;-67
2022/12/10 01:28:48;;;;;;;1.63;1.10;;;19.00;53.00;;;;;;6269942;28;20099;-67
2022/12/10 01:31:54;;;;;;;0.95;0.75;;;19.00;53.00;;;;;;6269304;28;20020;-67
2022/12/10 01:34:56;;;;;;;1.50;1.10;;;19.00;53.00;;;;;;6269568;28;20056;-68
2022/12/10 01:37:56;;;;;;;1.45;0.90;;;19.00;53.00;;;;;;6269337;28;20032;-67
2022/12/10 01:40:59;;;;;;;1.23;1.13;;;19.00;53.00;;;;;;6269759;28;20025;-67
2022/12/10 01:43:59;;;;;;;1.33;1.10;;;19.00;53.00;;;;;;6269129;28;20025;-67
2022/12/10 01:47:00;;;;;;;1.23;0.93;;;19.00;53.00;;;;;;6269400;28;20036;-67
2022/12/10 01:50:02;;;;;;;1.42;1.00;;;19.00;53.00;;;;;;6268937;28;20029;-67
2022/12/10 01:53:02;;;;;;;1.30;1.10;;;19.00;53.00;;;;;;6269213;28;20037;-67
2022/12/10 01:56:03;;;;;;;1.00;0.90;;;19.00;52.90;;;;;;6269127;28;20122;-67
2022/12/10 01:59:05;;;;;;;1.08;0.98;;;19.00;53.00;;;;;;6269235;28;20035;-67
2022/12/10 02:02:06;;;;;;;1.10;0.90;;;19.00;53.00;;;;;;6268662;28;20060;-67
2022/12/10 02:05:22;;;;;;;1.02;0.93;;;19.00;53.00;;;;;;6269026;28;20025;-67
2022/12/10 02:08:33;;;;;;;1.17;0.90;;;19.00;53.00;;;;;;6268908;28;20049;-67
2022/12/10 02:12:31;;;;;;;1.35;0.90;;;19.00;53.00;;;;;;6268875;28;20122;-67
2022/12/10 02:15:39;;;;;;;1.17;1.00;;;19.00;53.10;;;;;;6216376;28;20030;-67
2022/12/10 02:18:53;;;;;;;1.13;1.00;;;19.00;53.00;;;;;;6221052;28;20034;-67
2022/12/10 02:21:55;;;;;;;1.58;1.00;;;19.00;53.10;;;;;;6268815;28;20382;-68
2022/12/10 02:24:58;;;;;;;1.67;1.05;;;19.00;53.00;;;;;;6267234;28;20053;-67
2022/12/10 02:28:20;;;;;;;1.08;0.98;;;19.00;53.00;;;;;;6268189;28;20021;-67
2022/12/10 02:31:28;;;;;;;1.02;0.90;;;19.00;53.00;;;;;;6268685;28;20056;-67
2022/12/10 02:34:33;;;;;;;1.17;0.90;;;19.00;53.10;;;;;;6268740;28;20082;-67
2022/12/10 02:37:40;;;;;;;1.08;0.95;;;19.00;53.10;;;;;;6268629;28;20112;-67
2022/12/10 02:40:47;;;;;;;1.10;0.93;;;19.00;53.00;;;;;;6268512;28;20021;-68
2022/12/10 02:43:51;;;;;;;0.70;0.70;;;19.00;53.00;;;;;;6268498;28;20532;-67
2022/12/10 02:46:56;;;;;;;1.00;0.90;;;19.00;53.00;;;;;;6268702;28;20025;-68
2022/12/10 02:49:59;;;;;;;1.63;1.20;;;19.00;53.00;;;;;;6267286;28;20017;-68
2022/12/10 02:52:59;;;;;;;1.08;0.90;;;19.00;53.00;;;;;;6268402;28;20076;-67
2022/12/10 02:56:09;;;;;;;0.85;0.75;;;19.00;53.00;;;;;;6268151;28;20107;-67
2022/12/10 02:59:28;;;;;;;1.20;1.10;;;19.00;53.10;;;;;;6268367;28;20079;-67
2022/12/10 03:02:51;;;;;;;1.20;0.80;;;19.00;53.00;;;;;;6268511;28;20028;-67
2022/12/10 03:06:18;;;;;;;1.58;1.13;;;19.00;52.80;;;;;;6268293;28;20017;-67
2022/12/10 03:09:23;;;;;;;1.00;0.85;;;19.00;53.10;;;;;;6260202;28;20383;-67
2022/12/10 03:12:31;;;;;;;1.00;0.90;;;19.00;53.10;;;;;;6268129;28;20083;-67
2022/12/10 03:15:35;;;;;;;1.50;0.90;;;19.00;53.10;;;;;;6268177;28;20086;-67
2022/12/10 03:18:37;;;;;;;1.00;0.90;;;19.00;53.00;;;;;;6266729;28;20029;-67
2022/12/10 03:21:40;;;;;;;1.00;0.90;;;19.00;53.00;;;;;;6268018;28;20025;-67
2022/12/10 03:24:43;;;;;;;1.17;0.77;;;19.00;53.00;;;;;;6267991;28;20028;-68
2022/12/10 03:27:49;;;;;;;1.50;1.10;;;19.00;53.00;;;;;;6267824;28;20017;-67
2022/12/10 03:30:51;;;;;;;1.45;1.05;;;19.00;53.10;;;;;;6268635;28;20079;-68
2022/12/10 03:33:52;;;;;;;1.30;1.00;;;19.00;53.00;;;;;;6267780;28;20025;-67
2022/12/10 03:36:54;;;;;;;1.02;0.90;;;19.00;52.70;;;;;;6268103;28;20074;-67
2022/12/10 03:39:56;;;;;;;1.10;1.00;;;19.00;53.00;;;;;;6269802;28;20116;-67
2022/12/10 03:42:57;;;;;;;1.20;1.00;;;19.00;53.00;;;;;;6271811;28;20107;-67
2022/12/10 03:45:58;;;;;;;1.10;0.90;;;19.00;53.00;;;;;;6272386;28;20492;-67
2022/12/10 03:48:59;;;;;;;1.05;0.95;;;19.00;53.00;;;;;;6272009;28;20025;-67
2022/12/10 03:52:00;;;;;;;1.50;1.20;;;19.00;53.10;;;;;;6272103;28;20029;-67
2022/12/10 03:55:01;;;;;;;1.15;1.00;;;19.00;53.00;;;;;;6272007;28;20064;-68
2022/12/10 03:58:02;;;;;;;1.20;1.10;;;19.00;53.00;;;;;;6271809;28;20079;-67
2022/12/10 04:01:04;;;;;;;1.20;1.00;;;19.00;53.00;;;;;;6271721;28;20029;-67
2022/12/10 04:04:05;;;;;;;0.98;0.80;;;19.00;53.10;;;;;;6271628;28;20489;-67
2022/12/10 04:07:06;;;;;;;1.23;0.98;;;19.00;53.80;;;;;;6271750;28;20025;-68
2022/12/10 04:10:07;;;;;;;1.23;1.02;;;19.00;53.10;;;;;;6271477;28;20032;-67
2022/12/10 04:16:28;;;;;;;1.33;1.10;;;19.00;53.10;;;;;;6271713;28;20033;-67
2022/12/10 04:19:29;;;;;;;1.77;1.15;;;19.00;53.10;;;;;;6270246;28;20138;-67
2022/12/10 04:29:10;;;;;;;1.30;1.20;;;19.00;53.10;;;;;;6269709;28;20486;-67
2022/12/10 04:32:10;;;;;;;1.02;0.85;;;19.00;53.20;;;;;;6270940;28;20032;-67
2022/12/10 04:35:11;;;;;;;1.10;0.90;;;19.00;53.10;;;;;;6271927;28;20440;-67
2022/12/10 04:38:12;;;;;;;1.15;1.02;;;19.00;53.10;;;;;;6271724;28;20418;-67
2022/12/10 04:41:15;;;;;;;0.90;0.80;;;19.00;53.10;;;;;;6271331;28;20025;-67
2022/12/10 04:44:16;;;;;;;1.30;1.02;;;19.00;53.10;;;;;;6271326;28;20048;-68
2022/12/10 04:47:17;;;;;;;1.27;1.00;;;19.00;53.10;;;;;;6271026;28;20021;-66
2022/12/10 04:50:17;;;;;;;1.17;0.93;;;19.00;53.10;;;;;;6269980;28;20051;-67
2022/12/10 04:53:19;;;;;;;1.17;1.00;;;19.00;53.10;;;;;;6270532;28;20025;-67
2022/12/10 04:56:19;;;;;;;1.88;1.10;;;19.00;53.10;;;;;;6270488;28;20140;-67
2022/12/10 05:03:17;;;;;;;0.90;0.80;;;19.00;53.00;;;;;;6270141;28;20124;-67
2022/12/10 05:06:19;;;;;;;1.20;1.10;;;19.00;53.00;;;;;;6270314;28;20027;-67
2022/12/10 05:09:22;;;;;;;1.42;1.13;;;19.00;53.10;;;;;;6270490;28;20041;-67
2022/12/10 05:12:23;;;;;;;1.30;0.90;;;19.00;53.10;;;;;;6268761;28;20469;-68
2022/12/10 05:15:23;;;;;;;1.10;0.90;;;19.00;53.10;;;;;;6270031;28;20025;-67
2022/12/10 05:18:24;;;;;;;1.35;1.00;;;19.00;53.10;;;;;;6270300;28;20036;-67
2022/12/10 05:24:46;;;;;;;1.60;0.90;;;19.00;53.10;;;;;;6269655;28;20029;-67
2022/12/10 05:27:47;;;;;;;1.27;1.17;;;19.00;53.10;;;;;;6269973;28;20032;-67
2022/12/10 05:30:48;;;;;;;0.90;0.82;;;19.00;53.10;;;;;;6269511;28;20025;-68
2022/12/10 05:33:50;;;;;;;1.13;1.00;;;19.00;53.10;;;;;;6269632;28;20470;-68
2022/12/10 05:36:50;;;;;;;1.27;0.90;;;19.00;53.10;;;;;;6268064;28;20024;-67
2022/12/10 05:39:51;;;;;;;0.98;0.77;;;19.00;53.10;;;;;;6269817;28;20025;-68
2022/12/10 05:42:52;;;;;;;1.27;1.13;;;19.00;53.00;;;;;;6269170;28;20412;-67
2022/12/10 05:45:52;;;;;;;1.27;0.93;;;19.00;53.10;;;;;;6269343;28;20481;-67
2022/12/10 05:48:54;;;;;;;1.38;1.05;;;19.00;53.10;;;;;;6269274;28;20141;-67
2022/12/10 05:51:56;;;;;;;0.82;0.70;;;19.00;53.10;;;;;;6269462;28;20040;-68
2022/12/10 05:54:56;;;;;;;1.38;0.90;;;19.00;53.10;;;;;;6269071;28;20502;-67
2022/12/10 05:57:57;;;;;;;1.48;0.90;;;19.00;53.10;;;;;;6269227;28;20031;-67
2022/12/10 06:00:59;;;;;;;1.50;1.00;;;19.00;53.10;;;;;;6269124;28;20025;-67
2022/12/10 06:04:01;;;;;;;0.98;0.88;;;19.00;53.00;;;;;;6267960;28;20025;-67
2022/12/10 06:07:02;;;;;;;1.90;0.95;;;19.00;53.10;;;;;;6267537;28;20466;-67
2022/12/10 06:10:03;;;;;;;0.95;0.85;;;19.00;53.10;;;;;;6269015;28;20075;-67
2022/12/10 06:13:04;;;;;;;1.50;1.00;;;19.00;53.10;;;;;;6268656;28;20025;-68
2022/12/10 06:16:07;;;;;;;0.80;0.80;;;19.00;53.10;;;;;;6268781;28;20033;-67
2022/12/10 06:19:07;;;;;;;0.88;0.70;;;19.00;53.10;;;;;;6268972;28;20052;-67
2022/12/10 06:22:08;;;;;;;1.13;0.90;;;19.00;53.10;;;;;;6267428;28;20390;-67
2022/12/10 06:25:09;;;;;;;1.27;1.00;;;19.00;53.10;;;;;;6268620;28;20032;-67
2022/12/10 06:28:10;;;;;;;1.67;1.17;;;19.00;53.20;;;;;;6268873;28;20013;-67
2022/12/10 06:31:10;;;;;;;1.27;0.90;;;19.00;53.10;;;;;;6268477;28;20104;-67
2022/12/10 06:34:11;;;;;;;0.93;0.82;;;19.00;53.10;;;;;;6268337;28;20032;-67
2022/12/10 06:37:12;;;;;;;1.48;0.80;;;19.00;53.00;;;;;;6267021;28;20021;-67
2022/12/10 06:40:12;;;;;;;1.20;1.00;;;19.00;53.10;;;;;;6267288;28;20390;-67
2022/12/10 06:43:13;;;;;;;0.93;0.80;;;19.00;53.10;;;;;;6268399;28;20087;-68
2022/12/10 06:46:16;;;;;;;0.90;0.70;;;19.00;53.00;;;;;;6268206;28;20048;-67
2022/12/10 06:49:16;;;;;;;1.05;0.95;;;19.00;53.10;;;;;;6266858;28;20033;-67
2022/12/10 06:52:17;;;;;;;1.27;0.93;;;19.00;52.70;;;;;;6268154;28;20029;-67
2022/12/10 06:55:18;;;;;;;1.50;0.98;;;19.00;53.10;;;;;;6268121;28;20099;-68
2022/12/10 06:58:18;;;;;;;1.08;0.82;;;19.00;53.10;;;;;;6268382;28;20047;-67
2022/12/10 07:01:22;;;;;;;1.00;0.90;;;19.00;53.10;;;;;;6268633;28;20029;-67
2022/12/10 07:04:23;;;;;;;0.90;0.80;;;19.00;53.00;;;;;;6267988;28;20692;-67
2022/12/10 07:07:23;;;;;;;1.02;0.90;;;19.00;53.00;;;;;;6268115;28;20024;-67
2022/12/10 07:10:24;;;;;;;1.00;0.90;;;19.00;53.00;;;;;;6268017;28;20017;-67
2022/12/10 07:13:25;;;;;;;1.15;0.98;;;19.00;53.00;;;;;;6268906;28;20064;-67
2022/12/10 07:16:29;;;;;;;0.90;0.70;;;19.00;53.10;;;;;;6272996;28;20246;-67
2022/12/10 07:19:30;;;;;;;0.63;0.63;;;19.00;53.00;;;;;;6272958;28;20025;-67
2022/12/10 07:22:31;;;;;;;1.13;0.90;;;19.00;53.00;;;;;;6272683;28;20390;-67
2022/12/10 07:25:32;;;;;;;1.42;0.90;;;19.00;53.00;;;;;;6272598;28;20100;-67
2022/12/10 07:28:33;;;;;;;0.98;0.80;;;19.00;53.10;;;;;;6272446;28;20536;-67
2022/12/10 07:31:35;;;;;;;0.98;0.70;;;19.00;53.00;;;;;;6270972;28;20021;-67
2022/12/10 07:34:36;;;;;;;1.30;0.93;;;19.00;53.10;;;;;;6272302;28;20031;-67
2022/12/10 07:37:37;;;;;;;0.88;0.80;;;19.00;53.10;;;;;;6271142;28;20028;-68
2022/12/10 07:40:37;;;;;;;0.80;0.77;;;19.00;53.10;;;;;;6271982;28;20052;-67
2022/12/10 07:43:40;;;;;;;1.60;0.80;;;19.00;53.10;;;;;;6272110;28;20029;-67
2022/12/10 07:46:41;;;;;;;1.05;0.70;;;19.00;53.10;;;;;;6271975;28;20659;-67
2022/12/10 07:49:42;;;;;;;1.10;0.90;;;19.00;53.00;;;;;;6272250;28;20029;-66
2022/12/10 07:52:42;;;;;;;1.42;0.95;;;19.00;53.00;;;;;;6271897;28;20061;-67
2022/12/10 07:55:44;;;;;;;0.88;0.73;;;19.00;53.00;;;;;;6272109;28;20048;-67
2022/12/10 07:58:45;;;;;;;0.88;0.70;;;19.00;53.10;;;;;;6271845;28;20509;-67
2022/12/10 08:01:46;;;;;;;1.55;0.88;;;19.00;53.00;;;;;;6271823;28;20025;-67
2022/12/10 08:04:46;;;;;;;0.82;0.80;;;19.00;52.90;;;;;;6272016;28;20021;-67
2022/12/10 08:07:47;;;;;;;1.50;0.73;;;19.00;53.00;;;;;;6271661;28;20055;-67
2022/12/10 08:10:47;;;;;;;1.00;0.80;;;19.00;53.10;;;;;;6271574;28;20052;-67
2022/12/10 08:13:49;;;;;;;0.82;0.75;;;19.00;53.00;;;;;;6271904;28;20027;-67
2022/12/10 08:16:50;;;;;;;1.45;1.15;;;19.00;53.10;;;;;;6271527;28;20040;-67
2022/12/10 08:19:51;;;;;;;1.25;0.93;;;19.00;53.00;;;;;;6271627;28;20047;-67
2022/12/10 08:22:52;;;;;;;1.30;0.98;;;19.00;53.00;;;;;;6271363;28;20048;-67
2022/12/10 08:25:52;;;;;;;1.00;0.90;;;19.00;53.00;;;;;;6270353;28;20029;-67
2022/12/10 08:28:54;;;;;;;0.80;0.70;;;19.00;53.00;;;;;;6271450;28;20103;-67
2022/12/10 08:31:55;;;;;;;1.15;1.05;;;19.00;53.10;;;;;;6270214;28;20025;-68
2022/12/10 08:34:56;;;;;;;1.10;0.80;;;19.00;53.00;;;;;;6271389;28;20474;-67
2022/12/10 08:37:56;;;;;;;0.90;0.77;;;19.00;53.10;;;;;;6271165;28;20032;-67
2022/12/10 08:40:57;;;;;;;1.10;1.00;;;19.00;53.10;;;;;;6271183;28;20045;-67
2022/12/10 08:43:58;;;;;;;1.38;1.00;;;19.00;53.00;;;;;;6269876;28;20027;-67
2022/12/10 08:46:59;;;;;;;1.83;1.10;;;19.00;53.00;;;;;;6271094;28;20013;-67
2022/12/10 08:50:00;;;;;;;1.00;0.88;;;19.00;53.00;;;;;;6270966;28;20497;-67
2022/12/10 08:53:02;;;;;;;1.20;0.90;;;19.00;53.00;;;;;;6270809;28;20052;-67
2022/12/10 08:56:03;;;;;;;0.80;0.70;;;19.00;53.10;;;;;;6269336;28;20084;-67
2022/12/10 08:59:03;;;;;;;1.08;0.82;;;19.00;53.00;;;;;;6270594;28;20028;-67
2022/12/10 09:02:04;;;;;;;2.55;0.85;;;19.00;53.00;;;;;;6270107;28;20529;-67
2022/12/10 09:05:06;;;;;;;1.08;0.88;;;19.00;53.00;;;;;;6270460;28;20028;-67
2022/12/10 09:08:06;;;;;;;1.20;0.95;;;19.00;52.90;;;;;;6270314;28;20544;-67
2022/12/10 09:11:17;;;;;;;0.90;0.85;;;19.00;53.00;;;;;;6270388;28;20039;-67
2022/12/10 09:14:17;;;;;;;1.30;0.90;;;18.90;52.90;;;;;;6269162;28;20422;-67
2022/12/10 09:17:18;;;;;;;1.58;1.20;;;18.90;52.90;;;;;;6270323;28;20079;-67
2022/12/10 09:20:19;;;;;;;0.80;0.70;;;19.00;53.00;;;;;;6268928;28;20039;-67
2022/12/10 09:23:19;;;;;;;0.95;0.80;;;18.90;52.90;;;;;;6269782;28;20052;-67
2022/12/10 09:26:21;;;;;;;0.98;0.70;;;19.00;53.00;;;;;;6270141;28;20025;-67
2022/12/10 09:29:21;;;;;;;1.05;0.80;;;19.00;53.00;;;;;;6268766;28;20029;-67
2022/12/10 09:32:22;;;;;;;0.88;0.80;;;19.00;53.00;;;;;;6268402;28;20074;-67
2022/12/10 09:35:23;;;;;;;1.20;0.90;;;18.90;52.90;;;;;;6268619;28;20685;-67
2022/12/10 09:38:25;;;;;;;0.90;0.70;;;19.00;53.00;;;;;;6269769;28;20390;-67
2022/12/10 09:41:47;;;;;;;0.85;0.70;;;19.00;52.90;;;;;;6270081;28;20037;-67
2022/12/10 09:45:12;;;;;;;0.90;0.80;;;19.00;53.00;;;;;;6269467;28;20709;-67
2022/12/10 09:48:27;;;;;;;0.88;0.80;;;19.00;52.90;;;;;;6268254;28;20029;-67
2022/12/10 09:51:37;;;;;;;1.30;0.90;;;19.00;52.90;;;;;;6267575;28;20029;-67
2022/12/10 09:54:42;;;;;;;0.95;0.70;;;19.00;52.90;;;;;;6269270;28;20049;-67
2022/12/10 09:57:46;;;;;;;1.05;0.95;;;19.00;52.90;;;;;;6268409;28;20029;-67
2022/12/10 10:01:06;;;;;;;1.35;0.90;;;19.00;52.90;;;;;;6267832;28;20025;-67
2022/12/10 10:04:06;;;;;;;1.00;0.90;;;19.00;52.90;;;;;;6267506;28;20517;-67
2022/12/10 10:07:16;;;;;;;1.70;0.82;;;19.00;52.90;;;;;;6269294;28;20021;-67
2022/12/10 10:10:32;;;;;;;0.85;0.73;;;19.00;52.90;;;;;;6269112;28;20028;-68
2022/12/10 10:13:42;;;;;;;0.93;0.82;;;19.00;52.90;;;;;;6268735;28;20112;-67
2022/12/10 10:17:08;;;;;;;1.10;0.98;;;19.00;52.90;;;;;;6268777;28;20020;-67
2022/12/10 10:20:09;;;;;;;1.10;0.70;;;19.00;53.00;;;;;;6268598;28;20021;-67
2022/12/10 10:23:14;;;;;;;1.05;0.90;;;19.00;52.90;;;;;;6268439;28;20078;-69
2022/12/10 10:26:15;;;;;;;1.48;1.00;;;19.00;53.00;;;;;;6268744;28;20475;-67
2022/12/10 10:29:19;;;;;;;1.23;1.00;;;19.00;52.90;;;;;;6269124;28;20147;-67
2022/12/10 10:32:22;;;;;;;1.00;0.90;;;19.00;53.00;;;;;;6268604;28;20495;-68
2022/12/10 10:35:30;;;;;;;1.13;0.80;;;19.00;53.00;;;;;;6268429;28;20033;-68
2022/12/10 10:38:32;;;;;;;0.85;0.70;;;19.00;53.00;;;;;;6268662;28;20700;-67
2022/12/10 10:41:39;;;;;;;1.02;0.88;;;19.00;53.00;;;;;;6266876;28;20494;-67
2022/12/10 10:44:41;;;;;;;1.10;0.88;;;19.00;53.00;;;;;;6267416;28;20508;-66
2022/12/10 10:47:42;;;;;;;1.45;0.95;;;19.00;52.90;;;;;;6268912;28;20025;-66
2022/12/10 10:50:46;;;;;;;0.98;0.90;;;19.00;53.70;;;;;;6273452;28;20021;-67
2022/12/10 10:53:50;;;;;;;0.85;0.75;;;19.00;53.00;;;;;;6271978;28;20555;-67
2022/12/10 10:56:50;;;;;;;1.50;0.98;;;19.00;52.90;;;;;;6272146;28;20179;-67
2022/12/10 10:59:54;;;;;;;2.70;0.93;;;19.00;53.00;;;;;;6273667;28;20521;-67
2022/12/10 11:02:57;;;;;;;0.95;0.85;;;19.00;52.90;;;;;;6273533;28;20409;-67
2022/12/10 11:05:59;;;;;;;1.48;1.00;;;19.00;52.90;;;;;;6273138;28;20017;-67
2022/12/10 11:09:00;;;;;;;0.80;0.70;;;19.00;52.90;;;;;;6271979;28;20031;-67
2022/12/10 11:12:21;;;;;;;0.82;0.70;;;19.00;53.00;;;;;;6271614;28;20394;-67
2022/12/10 11:15:22;;;;;;;1.08;0.75;;;19.00;53.00;;;;;;6272720;28;20517;-67
2022/12/10 11:18:31;;;;;;;1.20;1.00;;;19.00;52.90;;;;;;6273197;28;20040;-67
2022/12/10 11:21:33;;;;;;;1.63;1.02;;;19.00;53.00;;;;;;6272879;28;20456;-67
2022/12/10 11:24:34;;;;;;;0.80;0.70;;;19.00;53.00;;;;;;6272637;28;20028;-68
2022/12/10 11:28:00;;;;;;;1.00;0.90;;;19.00;52.90;;;;;;6272220;28;20101;-67
2022/12/10 11:31:07;;;;;;;1.30;0.90;;;19.00;52.90;;;;;;6272569;28;20111;-67
2022/12/10 11:34:21;;;;;;;1.20;0.70;;;19.00;53.00;;;;;;6272738;28;20608;-67
2022/12/10 11:37:36;;;;;;;1.45;0.90;;;19.00;52.90;;;;;;6272816;28;20108;-67
2022/12/10 11:40:44;;;;;;;0.93;0.82;;;19.00;53.00;;;;;;6264469;28;20037;-70
2022/12/10 11:43:56;;;;;;;1.10;0.82;;;19.00;52.90;;;;;;6250065;28;20051;-66
2022/12/10 11:47:16;;;;;;;1.30;0.90;;;19.00;52.90;;;;;;6270265;28;20024;-67
2022/12/10 11:50:34;;;;;;;1.42;1.00;;;19.00;52.70;;;;;;6255756;28;20029;-67
2022/12/10 11:53:41;;;;;;;1.50;1.23;;;19.00;52.80;;;;;;6284011;28;20025;-66
2022/12/10 11:56:50;;;;;;;1.73;1.02;;;19.00;52.80;;;;;;6289105;28;20041;-67
2022/12/10 12:00:31;;;;;;;2.65;1.00;;;19.00;52.80;;;;;;6270932;28;20060;-67
2022/12/10 12:03:51;;;;;;;5.97;1.20;;;19.00;52.80;;;;;;6270384;28;20642;-68
2022/12/10 12:07:13;;;;;;;2.67;1.00;;;19.10;52.70;;;;;;6270395;28;20481;-67
2022/12/10 12:10:42;;;;;;;1.80;0.98;;;19.10;52.90;;;;;;6269603;28;20029;-66
2022/12/10 12:14:11;;;;;;;0.93;0.73;;;19.10;52.90;;;;;;6270586;28;20017;-67
2022/12/10 12:17:25;;;;;;;3.05;1.13;;;19.10;52.90;;;;;;6269751;28;20028;-67
2022/12/10 12:20:42;;;;;;;2.03;1.08;;;19.10;53.00;;;;;;6244330;28;20022;-67
2022/12/10 12:23:46;;;;;;;11.15;1.40;;;19.10;53.00;;;;;;6265795;28;20028;-67
2022/12/10 12:27:21;;;;;;;1.10;0.90;;;19.10;53.00;;;;;;6270169;28;20033;-67
2022/12/10 12:30:23;;;;;;;1.63;1.15;;;19.00;53.10;;;;;;6286038;28;20520;-67
2022/12/10 12:33:36;;;;;;;1.42;0.95;;;19.10;53.10;;;;;;6258975;28;20063;-69
2022/12/10 12:36:37;;;;;;;2.45;0.80;;;19.10;53.10;;;;;;6269457;28;20437;-67
2022/12/10 12:39:40;;;;;;;1.40;1.00;;;19.10;53.10;;;;;;6288916;28;20410;-67
2022/12/10 12:42:55;;;;;;;1.75;1.02;;;19.10;53.20;;;;;;6285235;28;20123;-68
2022/12/10 12:45:56;;;;;;;4.80;0.90;;;19.10;53.20;;;;;;6254138;28;20021;-67
2022/12/10 12:49:02;;;;;;;2.28;1.10;;;19.10;53.20;;;;;;6269750;28;20029;-68
2022/12/10 12:52:21;;;;;;;2.33;1.20;;;19.10;53.10;;;;;;6267872;28;20655;-67
2022/12/10 12:55:31;;;;;;;1.60;1.10;;;19.10;53.20;;;;;;6291515;28;20036;-67
2022/12/10 12:58:41;;;;;;;2.47;1.40;;;19.10;53.20;;;;;;6277471;28;20425;-66
2022/12/10 13:02:01;;;;;;;2.10;1.13;;;19.10;53.20;;;;;;6267481;28;20052;-66
2022/12/10 13:05:03;;;;;;;2.25;1.50;;;19.10;53.10;;;;;;6284745;28;20127;-67
2022/12/10 13:08:19;;;;;;;3.33;1.48;;;19.00;53.10;;;;;;6270053;28;20032;-67
2022/12/10 13:11:38;;;;;;;2.15;1.45;;;19.00;53.10;;;;;;6279235;28;20017;-67
2022/12/10 13:14:48;;;;;;;3.38;1.60;;;19.00;52.90;;;;;;6264830;28;20032;-67
2022/12/10 13:18:10;;;;;;;2.20;1.60;;;19.10;52.90;;;;;;6268929;28;20393;-67
2022/12/10 13:21:28;;;;;;;3.10;1.70;;;19.10;52.80;;;;;;6244109;28;20029;-67
2022/12/10 13:24:35;;;;;;;2.72;1.77;;;19.10;52.80;;;;;;6266440;28;20025;-67
2022/12/10 13:27:35;;;;;;;5.55;2.38;;;19.10;52.90;;;;;;6293362;28;20150;-68
2022/12/10 13:30:37;;;;;;;4.25;2.58;;;19.10;52.80;;;;;;6266095;28;20352;-68
2022/12/10 13:33:49;;;;;;;5.60;2.97;;;19.10;52.80;;;;;;6271243;28;20028;-67
2022/12/10 13:36:50;;;;;;;12.20;4.65;;;19.10;52.80;;;;;;6259940;28;20538;-67
2022/12/10 13:40:00;;;;;;;8.25;4.57;;;19.10;52.70;;;;;;6258205;28;20056;-67
2022/12/10 13:46:54;;;;;;;8.23;4.40;;;19.10;52.80;;;;;;6278379;28;20662;-67
2022/12/10 13:50:05;;;;;;;6.97;3.90;;;19.10;53.00;;;;;;6266784;28;20017;-67
2022/12/10 13:53:15;;;;;;;10.27;4.20;;;19.10;52.90;;;;;;6268572;28;20025;-67
2022/12/10 13:56:42;;;;;;;8.65;4.47;;;19.10;53.00;;;;;;6267869;28;20121;-67
2022/12/10 14:00:04;;;;;;;10.20;4.53;;;19.10;53.10;;;;;;6271508;28;20028;-68
2022/12/10 14:03:57;;;;;;;9.00;5.13;;;19.10;53.00;;;;;;6293438;28;20095;-67
2022/12/10 14:06:57;;;;;;;9.32;4.30;;;19.10;53.00;;;;;;6292559;28;20021;-67
2022/12/10 14:10:00;;;;;;;10.73;4.80;;;19.10;53.00;;;;;;6291405;28;20540;-68
2022/12/10 14:13:02;;;;;;;7.75;4.78;;;19.10;53.00;;;;;;6291514;28;20054;-67
2022/12/10 14:16:09;;;;;;;8.93;4.28;;;19.10;53.00;;;;;;6279145;28;20092;-68
2022/12/10 14:19:14;;;;;;;10.10;5.18;;;19.10;53.00;;;;;;6268069;28;20151;-68
2022/12/10 14:22:47;;;;;;;;;;;19.10;53.10;;;;;;6266833;28;20029;-67
2022/12/10 14:25:47;;;;;;;8.80;4.80;;;19.10;52.90;;;;;;6268434;28;19905;-67
2022/12/10 14:28:59;;;;;;;7.82;5.20;;;19.10;53.10;;;;;;6242896;28;20032;-68
2022/12/10 14:32:01;;;;;;;11.90;5.20;;;19.10;53.10;;;;;;6293059;28;20021;-68
2022/12/10 14:35:06;;;;;;;9.43;4.97;;;19.10;53.10;;;;;;6268245;28;20043;-67
2022/12/10 14:38:29;;;;;;;8.57;5.05;;;19.10;53.10;;;;;;6266419;28;20062;-67
2022/12/10 14:41:32;;;;;;;11.05;5.75;;;19.10;53.10;;;;;;6267995;28;20017;-68
2022/12/10 14:44:37;;;;;;;9.02;5.45;;;19.10;53.10;;;;;;6268534;28;20021;-67
2022/12/10 14:47:39;;;;;;;9.52;5.40;;;19.10;53.10;;;;;;6267377;28;20551;-67
2022/12/10 14:50:40;;;;;;;7.32;4.50;;;19.10;53.10;;;;;;6260682;28;20025;-67
2022/12/10 14:53:41;;;;;;;9.55;5.63;;;19.10;53.20;;;;;;6262990;28;20021;-68
2022/12/10 14:56:42;;;;;;;10.23;5.13;;;19.10;53.20;;;;;;6264947;28;20060;-67
2022/12/10 14:59:52;;;;;;;10.45;5.53;;;19.10;53.20;;;;;;6266406;28;20064;-69
2022/12/10 15:02:59;;;;;;;11.25;5.82;;;19.10;53.20;;;;;;6267045;28;20529;-70
2022/12/10 15:06:09;;;;;;;11.43;5.38;;;19.10;53.20;;;;;;6265845;28;20021;-70
2022/12/10 15:09:21;;;;;;;14.00;5.25;;;19.10;53.20;;;;;;6265440;28;20029;-71
2022/12/10 15:12:50;;;;;;;10.55;5.85;;;19.10;53.20;;;;;;6282767;28;20079;-71
2022/12/10 15:15:52;;;;;;;10.77;5.65;;;19.10;53.20;;;;;;6288061;28;20044;-71
2022/12/10 15:18:54;;;;;;;11.23;5.65;;;19.10;53.20;;;;;;6290241;28;20703;-68
2022/12/10 15:22:17;;;;;;;11.98;5.40;;;19.10;53.20;;;;;;6268330;28;20029;-69
2022/12/10 15:25:27;;;;;;;10.60;6.10;;;19.10;53.20;;;;;;6267731;28;20576;-69
2022/12/10 15:28:39;;;;;;;17.42;6.80;;;19.10;53.20;;;;;;6270572;28;20035;-67
2022/12/10 15:31:41;;;;;;;13.90;6.40;;;19.10;53.20;;;;;;6266245;28;20021;-68
2022/12/10 15:34:48;;;;;;;20.80;7.18;;;19.10;53.30;;;;;;6265901;28;20044;-68
2022/12/10 15:37:52;;;;;;;13.95;6.95;;;19.10;53.20;;;;;;6262318;28;20025;-68
2022/12/10 15:41:21;;;;;;;14.45;6.85;;;19.10;53.30;;;;;;6271519;28;20486;-67
2022/12/10 15:44:37;;;;;;;17.63;6.70;;;19.10;53.30;;;;;;6289380;28;20044;-68
2022/12/10 15:47:38;;;;;;;14.27;7.13;;;19.10;53.30;;;;;;6281049;28;20043;-68
2022/12/10 15:50:42;;;;;;;16.10;7.28;;;19.10;53.30;;;;;;6287852;28;20386;-68
2022/12/10 15:53:43;;;;;;;18.42;7.55;;;19.10;53.30;;;;;;6270375;28;20040;-69
2022/12/10 15:56:44;;;;;;;16.67;7.97;;;19.10;53.30;;;;;;6275074;28;20056;-68
2022/12/10 15:59:47;;;;;;;16.08;7.88;;;19.10;53.30;;;;;;6293839;28;20035;-68
2022/12/10 16:02:50;;;;;;;20.02;8.07;;;19.10;53.30;;;;;;6281556;28;20029;-68
2022/12/10 16:05:51;;;;;;;14.70;7.30;;;19.10;53.30;;;;;;6245789;28;20022;-67
2022/12/10 16:08:52;;;;;;;20.45;9.25;;;19.10;53.30;;;;;;6289385;28;20020;-68
2022/12/10 16:11:52;;;;;;;17.00;8.43;;;19.10;53.30;;;;;;6280183;28;20020;-68
2022/12/10 16:14:59;;;;;;;25.85;9.55;;;19.10;53.30;;;;;;6266092;28;20325;-68
2022/12/10 16:18:00;;;;;;;21.25;9.05;;;19.10;53.30;;;;;;6269220;28;20393;-68
2022/12/10 16:21:01;;;;;;;25.40;11.20;;;19.10;53.30;;;;;;6267761;28;20025;-68
2022/12/10 16:24:01;;;;;;;30.77;12.07;;;19.10;53.30;;;;;;6280574;28;20029;-68